Etusivu
METAR-TAF:

METAR-TAF

Lentoasemat :

Johnson County Executive Airport

Olathe, Kansas, Yhdysvallat

Leveyspiiri: 38-51-00N, Pituuspiiri: 094-44-21W, korkeus merenpinnasta: 334 m

Tämänhetkinen sää

Tämä raportti tehtiin 19 minuuttia sitten, kello 14.53 UTC
Tuuli 8 kn lounaasta
Lämpötila 28°C
Kosteus 66%
Ilmanpaine 1025 hPa
Näkyvyys: 16.1 km
selkeää

METAR: KOJC 201453Z 22008KT 10SM CLR 28/21 A3027 RMK AO2 SLP237 T02780211 51006

Aika: 10:12 (15:12 UTC)


TAF: puuttuu

Säähavainnot ja -ennusteet yli 4000 lentoasemalta (METAR- ja TAF-raportit).

Käytössä olevat sääasemat on merkitty karttaan keltaisilla ja punaisilla pisteillä.

Aseta hiiri pisteen päälle nähdäksesi sääaseman nimen.

Klikkaa sitten nähdäksesi säähavainnot ja -ennusteet.

Kartan vaihtaminen: klikkaa mustalla rastilla varustettuja vihreitä pisteitä, niin voit zoomata sisään; viivalla varustettua vihreää pistettä, niin voit zoomata ulos tai vihreitä nuolia, niin pääset viereisille kartoille.


METAR-TAF: